createdAt,value
2018-12-09T00:00:26.246Z,3.73
2018-12-09T00:02:54.797Z,3.20
2018-12-09T00:05:24.025Z,3.27
2018-12-09T00:07:52.827Z,3.33
2018-12-09T00:10:21.575Z,3.77
2018-12-09T00:12:50.297Z,4.03
2018-12-09T00:15:19.290Z,3.60
2018-12-09T00:17:47.780Z,3.47
2018-12-09T00:20:16.316Z,4.33
2018-12-09T00:22:44.801Z,4.23
2018-12-09T00:25:13.293Z,3.37
2018-12-09T00:27:41.754Z,2.93
2018-12-09T00:30:10.219Z,3.60
2018-12-09T00:32:38.687Z,3.00
2018-12-09T00:35:07.240Z,3.53
2018-12-09T00:37:35.743Z,4.03
2018-12-09T00:40:04.847Z,3.53
2018-12-09T00:42:33.304Z,4.13
2018-12-09T00:45:01.803Z,3.70
2018-12-09T00:47:30.391Z,3.57
2018-12-09T00:49:58.848Z,4.80
2018-12-09T00:52:27.321Z,3.60
2018-12-09T00:54:55.819Z,3.80
2018-12-09T00:57:24.290Z,3.53
2018-12-09T00:59:52.773Z,3.10
2018-12-09T01:02:21.276Z,3.30
2018-12-09T01:04:49.744Z,2.90
2018-12-09T01:07:18.330Z,3.20
2018-12-09T01:09:46.785Z,2.70
2018-12-09T01:12:15.309Z,4.40
2018-12-09T01:14:43.786Z,2.87
2018-12-09T01:17:12.332Z,3.20
2018-12-09T01:19:40.830Z,2.70
2018-12-09T01:22:09.302Z,3.00
2018-12-09T01:24:37.759Z,3.00
2018-12-09T01:27:06.263Z,3.03
2018-12-09T01:29:34.835Z,3.60
2018-12-09T01:32:03.686Z,3.30
2018-12-09T01:34:32.138Z,3.33
2018-12-09T01:37:00.605Z,3.47
2018-12-09T01:39:29.070Z,3.40
2018-12-09T01:41:57.996Z,3.33
2018-12-09T01:44:26.555Z,3.50
2018-12-09T01:46:55.023Z,3.73
2018-12-09T01:49:23.532Z,3.30
2018-12-09T01:51:52.019Z,2.63
2018-12-09T01:54:21.231Z,3.07
2018-12-09T01:56:49.711Z,4.00
2018-12-09T01:59:18.196Z,4.03
2018-12-09T02:01:46.670Z,3.17
2018-12-09T02:04:15.171Z,2.50
2018-12-09T02:06:43.627Z,2.70
2018-12-09T02:09:12.084Z,2.53
2018-12-09T02:11:40.522Z,2.43
2018-12-09T02:14:08.975Z,2.93
2018-12-09T02:16:37.413Z,2.93
2018-12-09T02:19:16.678Z,3.10
2018-12-09T02:21:45.586Z,3.10
2018-12-09T02:24:14.079Z,3.30
2018-12-09T02:26:42.594Z,3.30
2018-12-09T02:29:11.151Z,2.93
2018-12-09T02:31:39.612Z,2.83
2018-12-09T02:34:08.096Z,2.73
2018-12-09T02:36:36.862Z,2.83
2018-12-09T02:39:06.490Z,2.50
2018-12-09T02:41:35.078Z,2.87
2018-12-09T02:44:03.538Z,2.80
2018-12-09T02:46:31.982Z,2.70
2018-12-09T02:49:00.530Z,3.80
2018-12-09T02:51:28.997Z,2.67
2018-12-09T02:53:57.457Z,2.63
2018-12-09T02:56:25.935Z,3.00
2018-12-09T02:58:54.517Z,2.37
2018-12-09T03:01:22.992Z,3.13
2018-12-09T03:03:51.444Z,2.30
2018-12-09T03:06:19.894Z,3.50
2018-12-09T03:08:48.350Z,2.20
2018-12-09T03:11:16.829Z,2.53
2018-12-09T03:13:45.277Z,2.87
2018-12-09T03:16:13.731Z,2.07
2018-12-09T03:18:42.202Z,3.07
2018-12-09T03:21:11.049Z,3.60
2018-12-09T03:23:39.528Z,3.30
2018-12-09T03:26:08.016Z,2.33
2018-12-09T03:28:36.485Z,3.55
2018-12-09T03:31:05.000Z,4.87
2018-12-09T03:33:34.548Z,2.97
2018-12-09T03:36:03.178Z,3.60
2018-12-09T03:38:31.621Z,2.97
2018-12-09T03:41:00.083Z,3.17
2018-12-09T03:43:29.078Z,2.97
2018-12-09T03:45:57.544Z,3.50
2018-12-09T03:48:25.995Z,2.80
2018-12-09T03:50:54.435Z,5.17
2018-12-09T03:53:22.991Z,3.80
2018-12-09T03:55:51.491Z,3.87
2018-12-09T03:58:19.947Z,3.90
2018-12-09T04:00:48.420Z,3.37
2018-12-09T04:03:16.927Z,2.97
2018-12-09T04:05:45.395Z,3.00
2018-12-09T04:08:13.870Z,2.53
2018-12-09T04:12:11.511Z,2.57
2018-12-09T04:14:39.994Z,2.37
2018-12-09T04:17:08.551Z,2.43
2018-12-09T04:19:37.148Z,2.67
2018-12-09T04:22:05.592Z,3.70
2018-12-09T04:24:34.085Z,3.07
2018-12-09T04:27:02.559Z,2.90
2018-12-09T04:29:31.007Z,3.90
2018-12-09T04:31:59.683Z,2.73
2018-12-09T04:34:28.163Z,4.63
2018-12-09T04:36:56.617Z,3.87
2018-12-09T04:39:25.507Z,3.33
2018-12-09T04:41:53.962Z,2.57
2018-12-09T04:44:22.525Z,3.03
2018-12-09T04:46:51.007Z,3.00
2018-12-09T04:49:19.486Z,3.30
2018-12-09T04:51:54.662Z,2.73
2018-12-09T04:54:23.101Z,3.13
2018-12-09T04:56:51.585Z,3.23
2018-12-09T04:59:21.471Z,2.77
2018-12-09T05:01:49.941Z,3.03
2018-12-09T05:04:18.706Z,3.03
2018-12-09T05:06:47.163Z,2.50
2018-12-09T05:09:15.608Z,3.17
2018-12-09T05:11:44.085Z,2.80
2018-12-09T05:14:12.564Z,2.90
2018-12-09T05:16:41.042Z,3.13
2018-12-09T05:19:09.522Z,3.13
2018-12-09T05:21:37.979Z,2.80
2018-12-09T05:24:06.968Z,2.97
2018-12-09T05:26:35.432Z,3.00
2018-12-09T05:29:03.954Z,3.00
2018-12-09T05:31:32.500Z,2.50
2018-12-09T05:34:01.011Z,2.97
2018-12-09T05:36:29.715Z,3.03
2018-12-09T05:38:58.186Z,3.47
2018-12-09T05:41:26.638Z,3.20
2018-12-09T05:43:55.096Z,3.00
2018-12-09T05:46:23.694Z,3.40
2018-12-09T05:48:52.149Z,5.17
2018-12-09T05:51:20.648Z,4.20
2018-12-09T05:53:49.099Z,3.67
2018-12-09T05:56:17.575Z,2.77
2018-12-09T05:58:46.042Z,3.40
2018-12-09T06:01:14.495Z,3.03
2018-12-09T06:03:42.944Z,3.40
2018-12-09T06:06:11.411Z,3.03
2018-12-09T06:08:39.864Z,2.80
2018-12-09T06:11:08.350Z,2.73
2018-12-09T06:13:36.844Z,2.60
2018-12-09T06:16:05.321Z,3.67
2018-12-09T06:18:33.783Z,3.37
2018-12-09T06:21:02.300Z,3.00
2018-12-09T06:23:31.204Z,3.63
2018-12-09T06:25:59.651Z,3.07
2018-12-09T06:28:28.115Z,3.00
2018-12-09T06:30:56.639Z,3.03
2018-12-09T06:33:25.111Z,3.77
2018-12-09T06:35:53.844Z,2.80
2018-12-09T06:38:22.294Z,2.90
2018-12-09T06:40:50.742Z,2.83
2018-12-09T06:43:19.218Z,3.73
2018-12-09T06:45:47.705Z,2.93
2018-12-09T06:48:16.217Z,3.10
2018-12-09T06:50:44.760Z,2.50
2018-12-09T06:53:13.187Z,2.17
2018-12-09T06:55:41.639Z,2.03
2018-12-09T06:58:11.086Z,2.90
2018-12-09T07:00:39.540Z,2.80
2018-12-09T07:03:08.004Z,2.87
2018-12-09T07:05:36.488Z,3.13
2018-12-09T07:08:05.028Z,3.90
2018-12-09T07:10:33.484Z,2.53
2018-12-09T07:13:02.376Z,3.33
2018-12-09T07:15:30.831Z,2.93
2018-12-09T07:17:59.347Z,2.90
2018-12-09T07:20:27.831Z,3.27
2018-12-09T07:36:23.773Z,3.03
2018-12-09T07:38:52.579Z,2.03
2018-12-09T07:41:21.076Z,3.10
2018-12-09T07:43:49.528Z,2.83
2018-12-09T07:46:17.995Z,3.23
2018-12-09T07:48:46.519Z,2.90
2018-12-09T07:51:14.996Z,2.33
2018-12-09T07:53:43.499Z,2.70
2018-12-09T07:56:11.946Z,2.40
2018-12-09T07:58:40.771Z,2.13
2018-12-09T08:01:09.249Z,3.70
2018-12-09T08:03:37.721Z,3.00
2018-12-09T08:06:06.212Z,2.33
2018-12-09T08:08:34.662Z,2.03
2018-12-09T08:11:03.271Z,2.40
2018-12-09T08:13:31.750Z,2.17
2018-12-09T08:16:00.226Z,2.20
2018-12-09T08:18:28.711Z,1.93
2018-12-09T08:20:57.229Z,2.13
2018-12-09T08:23:25.700Z,2.33
2018-12-09T08:25:54.155Z,1.97
2018-12-09T08:28:22.643Z,2.17
2018-12-09T08:30:51.104Z,2.80
2018-12-09T08:33:19.702Z,2.20
2018-12-09T08:35:48.185Z,2.87
2018-12-09T08:38:16.695Z,3.00
2018-12-09T08:40:45.189Z,3.20
2018-12-09T08:43:13.693Z,3.07
2018-12-09T08:45:42.159Z,2.70
2018-12-09T08:48:10.606Z,2.13
2018-12-09T08:50:39.107Z,2.13
2018-12-09T09:36:52.961Z,1.83
2018-12-09T09:39:21.471Z,1.40
2018-12-09T09:41:49.932Z,2.10
2018-12-09T09:44:18.491Z,1.57
2018-12-09T09:46:47.146Z,2.83
2018-12-09T09:49:15.838Z,3.73
2018-12-09T09:51:44.327Z,2.37
2018-12-09T09:54:12.798Z,2.77
2018-12-09T09:56:41.247Z,2.77
2018-12-09T09:59:09.726Z,2.50
2018-12-09T10:01:38.211Z,2.60
2018-12-09T10:04:06.698Z,1.67
2018-12-09T10:06:35.271Z,1.77
2018-12-09T11:06:17.301Z,1.50
2018-12-09T11:08:45.761Z,1.43
2018-12-09T11:11:14.273Z,1.40
2018-12-09T11:13:42.720Z,1.60
2018-12-09T11:16:11.197Z,1.50
2018-12-09T11:18:39.756Z,1.27
2018-12-09T11:21:08.264Z,2.83
2018-12-09T11:23:36.728Z,1.30
2018-12-09T11:26:05.442Z,1.40
2018-12-09T11:28:33.915Z,1.30
2018-12-09T11:31:02.457Z,1.70
2018-12-09T11:33:30.899Z,1.43
2018-12-09T11:35:59.364Z,1.70
2018-12-09T11:38:27.879Z,1.20
2018-12-09T11:40:56.587Z,0.70
2018-12-09T11:43:25.082Z,1.17
2018-12-09T11:45:53.602Z,1.40
2018-12-09T11:48:22.070Z,1.63
2018-12-09T11:50:50.537Z,1.30
2018-12-09T11:53:19.029Z,1.17
2018-12-09T11:55:47.498Z,1.23
2018-12-09T11:58:15.992Z,1.50
2018-12-09T12:00:44.484Z,1.27
2018-12-09T12:03:12.976Z,1.20
2018-12-09T12:05:41.464Z,1.50
2018-12-09T12:08:10.996Z,1.23
2018-12-09T12:10:39.486Z,1.50
2018-12-09T12:13:07.983Z,1.40
2018-12-09T12:15:36.468Z,1.90
2018-12-09T12:22:41.982Z,1.90
2018-12-09T12:25:10.447Z,1.10
2018-12-09T12:27:38.926Z,1.63
2018-12-09T12:30:07.454Z,1.43
2018-12-09T12:32:35.947Z,1.70
2018-12-09T12:35:04.840Z,2.90
2018-12-09T12:37:33.320Z,1.70
2018-12-09T12:40:01.796Z,1.70
2018-12-09T12:42:30.406Z,1.47
2018-12-09T12:44:59.672Z,1.30
2018-12-09T12:47:28.139Z,3.03
2018-12-09T12:49:56.601Z,1.70
2018-12-09T12:52:25.094Z,1.20
2018-12-09T12:54:53.606Z,1.47
2018-12-09T12:57:22.357Z,1.83
